SBI7009 USTR-UNNT
Flight info
| Callsign | SBI7009 |
|---|---|
| Flight time | N/A |
| Altitude | 35000 |
| Route | NAPOR1T NAPOR T448 RUBOR A300 ML R814 SZ W1 GOLIM GOLIM1N |
| Aircraft | E170/M-SDE3GILORVW/S |
Departure
| Time | 2026-05-09 11:38 |
|---|---|
| Airport | Roshchino International Airport (USTR) |
Arrival
| Time | N/A |
|---|---|
| Airport | Novosibirsk Tolmachevo Airport (UNNT) |
| Time | Latitude | Longitude | Altitude | Speed | Heading |
|---|---|---|---|---|---|
| 2026-05-09 11:17 | 57.18055 | 65.34848 | 328 ft | 0 kts | 44° |
| 2026-05-09 11:29 | 57.18050 | 65.34838 | 329 ft | 2 kts | 44° |
| 2026-05-09 11:29 | 57.18039 | 65.34819 | 329 ft | 2 kts | 45° |
| 2026-05-09 11:29 | 57.18029 | 65.34799 | 329 ft | 2 kts | 44° |
| 2026-05-09 11:30 | 57.18018 | 65.34780 | 329 ft | 2 kts | 44° |
| 2026-05-09 11:30 | 57.18011 | 65.34756 | 329 ft | 2 kts | 81° |
| 2026-05-09 11:30 | 57.18012 | 65.34728 | 329 ft | 2 kts | 110° |
| 2026-05-09 11:30 | 57.18017 | 65.34712 | 329 ft | 0 kts | 131° |
| 2026-05-09 11:31 | 57.18022 | 65.34702 | 329 ft | 0 kts | 135° |
| 2026-05-09 11:33 | 57.18008 | 65.34728 | 329 ft | 8 kts | 134° |
| 2026-05-09 11:33 | 57.17836 | 65.35049 | 333 ft | 19 kts | 134° |
| 2026-05-09 11:34 | 57.17741 | 65.35229 | 333 ft | 20 kts | 134° |
| 2026-05-09 11:34 | 57.17640 | 65.35415 | 333 ft | 20 kts | 134° |
| 2026-05-09 11:34 | 57.17538 | 65.35604 | 335 ft | 20 kts | 135° |
| 2026-05-09 11:34 | 57.17442 | 65.35700 | 336 ft | 14 kts | 184° |
| 2026-05-09 11:35 | 57.17354 | 65.35674 | 337 ft | 3 kts | 225° |
| 2026-05-09 11:35 | 57.17353 | 65.35673 | 337 ft | 0 kts | 228° |
| 2026-05-09 11:36 | 57.17352 | 65.35671 | 337 ft | 2 kts | 229° |
| 2026-05-09 11:36 | 57.17322 | 65.35603 | 339 ft | 10 kts | 231° |
| 2026-05-09 11:36 | 57.17308 | 65.35476 | 340 ft | 10 kts | 309° |
| 2026-05-09 11:36 | 57.17361 | 65.35381 | 339 ft | 11 kts | 314° |
| 2026-05-09 11:37 | 57.17442 | 65.35228 | 338 ft | 38 kts | 313° |
| 2026-05-09 11:37 | 57.17773 | 65.34616 | 334 ft | 96 kts | 315° |
| 2026-05-09 11:37 | 57.18363 | 65.33506 | 335 ft | 142 kts | 315° |
| 2026-05-09 11:37 | 57.19062 | 65.32154 | 708 ft | 151 kts | 313° |
| 2026-05-09 11:38 | 57.19787 | 65.30795 | 1351 ft | 150 kts | 315° |
| 2026-05-09 11:38 | 57.20524 | 65.29476 | 2029 ft | 154 kts | 314° |
| 2026-05-09 11:38 | 57.21590 | 65.28681 | 2376 ft | 190 kts | 356° |
| 2026-05-09 11:38 | 57.22884 | 65.29772 | 2776 ft | 233 kts | 40° |
| 2026-05-09 11:39 | 57.23617 | 65.32605 | 3441 ft | 260 kts | 73° |
| 2026-05-09 11:39 | 57.24024 | 65.35781 | 4364 ft | 258 kts | 71° |
| 2026-05-09 11:39 | 57.24514 | 65.38951 | 5288 ft | 257 kts | 71° |
| 2026-05-09 11:40 | 57.25588 | 65.45189 | 6823 ft | 262 kts | 72° |
| 2026-05-09 11:40 | 57.26158 | 65.48389 | 7480 ft | 267 kts | 73° |
| 2026-05-09 11:40 | 57.26746 | 65.51652 | 8120 ft | 271 kts | 73° |
| 2026-05-09 11:40 | 57.27351 | 65.54996 | 8758 ft | 276 kts | 73° |
| 2026-05-09 11:41 | 57.27952 | 65.58321 | 9372 ft | 279 kts | 74° |
| 2026-05-09 11:41 | 57.28573 | 65.61753 | 9987 ft | 283 kts | 74° |
| 2026-05-09 11:41 | 57.29195 | 65.65206 | 10552 ft | 288 kts | 75° |
| 2026-05-09 11:41 | 57.29832 | 65.68742 | 10986 ft | 299 kts | 75° |
| 2026-05-09 11:42 | 57.30053 | 65.72549 | 11320 ft | 301 kts | 108° |
| 2026-05-09 11:42 | 57.29213 | 65.75980 | 11658 ft | 294 kts | 136° |
| 2026-05-09 11:42 | 57.27889 | 65.78901 | 12047 ft | 304 kts | 137° |
| 2026-05-09 11:42 | 57.26487 | 65.81917 | 12468 ft | 313 kts | 137° |
| 2026-05-09 11:43 | 57.25071 | 65.84940 | 12985 ft | 319 kts | 137° |
| 2026-05-09 11:43 | 57.23602 | 65.88058 | 13580 ft | 321 kts | 137° |
| 2026-05-09 11:43 | 57.22154 | 65.91125 | 14145 ft | 324 kts | 137° |
| 2026-05-09 11:43 | 57.20664 | 65.94273 | 14739 ft | 326 kts | 137° |
| 2026-05-09 11:44 | 57.19180 | 65.97405 | 15293 ft | 328 kts | 137° |
| 2026-05-09 11:44 | 57.17676 | 66.00574 | 15842 ft | 331 kts | 137° |
| 2026-05-09 11:44 | 57.16164 | 66.03755 | 16384 ft | 333 kts | 137° |
| 2026-05-09 11:44 | 57.14639 | 66.06959 | 16896 ft | 336 kts | 137° |
| 2026-05-09 11:45 | 57.13100 | 66.10189 | 17407 ft | 339 kts | 137° |
| 2026-05-09 11:45 | 57.11718 | 66.13749 | 17868 ft | 351 kts | 116° |
| 2026-05-09 11:45 | 57.11151 | 66.18176 | 18357 ft | 361 kts | 100° |
| 2026-05-09 11:45 | 57.10836 | 66.22752 | 18855 ft | 364 kts | 100° |
| 2026-05-09 11:46 | 57.10516 | 66.27356 | 19333 ft | 366 kts | 100° |
| 2026-05-09 11:46 | 57.10196 | 66.31930 | 19842 ft | 368 kts | 100° |
| 2026-05-09 11:46 | 57.09864 | 66.36630 | 20331 ft | 370 kts | 100° |
| 2026-05-09 11:46 | 57.09536 | 66.41257 | 20797 ft | 372 kts | 100° |
| 2026-05-09 11:47 | 57.09197 | 66.46017 | 21260 ft | 375 kts | 99° |
| 2026-05-09 11:47 | 57.08857 | 66.50774 | 21729 ft | 377 kts | 99° |
| 2026-05-09 11:47 | 57.08517 | 66.55487 | 22199 ft | 379 kts | 100° |
| 2026-05-09 11:47 | 57.08168 | 66.60297 | 22661 ft | 381 kts | 100° |
| 2026-05-09 11:48 | 57.07816 | 66.65129 | 23117 ft | 382 kts | 101° |
| 2026-05-09 11:48 | 57.07464 | 66.69945 | 23562 ft | 384 kts | 101° |
| 2026-05-09 11:48 | 57.07106 | 66.74809 | 23991 ft | 386 kts | 101° |
| 2026-05-09 11:48 | 57.06744 | 66.79688 | 24400 ft | 389 kts | 101° |
| 2026-05-09 11:49 | 57.06378 | 66.84603 | 24824 ft | 391 kts | 101° |
| 2026-05-09 11:49 | 57.06012 | 66.89503 | 25245 ft | 393 kts | 101° |
| 2026-05-09 11:49 | 57.05611 | 66.94462 | 25659 ft | 394 kts | 102° |
| 2026-05-09 11:49 | 57.05192 | 66.99412 | 26084 ft | 395 kts | 102° |
| 2026-05-09 11:50 | 57.04767 | 67.04403 | 26484 ft | 397 kts | 102° |
| 2026-05-09 11:50 | 57.04339 | 67.09406 | 26873 ft | 399 kts | 102° |
| 2026-05-09 11:50 | 57.03907 | 67.14423 | 27251 ft | 401 kts | 102° |
| 2026-05-09 11:50 | 57.03473 | 67.19445 | 27620 ft | 403 kts | 102° |
| 2026-05-09 11:51 | 57.03033 | 67.24514 | 27963 ft | 406 kts | 102° |
| 2026-05-09 11:51 | 57.02585 | 67.29643 | 28322 ft | 408 kts | 101° |
| 2026-05-09 11:51 | 57.02175 | 67.34323 | 28656 ft | 410 kts | 102° |
| 2026-05-09 11:51 | 57.01723 | 67.39449 | 29022 ft | 411 kts | 102° |
| 2026-05-09 11:52 | 57.01265 | 67.44624 | 29390 ft | 412 kts | 101° |
| 2026-05-09 11:52 | 57.00804 | 67.49807 | 29748 ft | 414 kts | 101° |
| 2026-05-09 11:52 | 57.00339 | 67.55002 | 30090 ft | 416 kts | 101° |
| 2026-05-09 11:52 | 56.99868 | 67.60247 | 30406 ft | 418 kts | 101° |
| 2026-05-09 11:53 | 56.99397 | 67.65472 | 30732 ft | 419 kts | 102° |
| 2026-05-09 11:53 | 56.98917 | 67.70752 | 31039 ft | 421 kts | 102° |
| 2026-05-09 11:53 | 56.98436 | 67.76027 | 31325 ft | 423 kts | 102° |
| 2026-05-09 11:53 | 56.97950 | 67.81331 | 31598 ft | 425 kts | 101° |
| 2026-05-09 11:54 | 56.97459 | 67.86668 | 31871 ft | 427 kts | 102° |
| 2026-05-09 11:54 | 56.96963 | 67.92035 | 32128 ft | 430 kts | 102° |
| 2026-05-09 11:54 | 56.96467 | 67.97367 | 32403 ft | 431 kts | 101° |
| 2026-05-09 11:54 | 56.95962 | 68.02775 | 32669 ft | 433 kts | 101° |
| 2026-05-09 11:55 | 56.95448 | 68.08249 | 32912 ft | 435 kts | 101° |
| 2026-05-09 11:56 | 56.92843 | 68.35586 | 34177 ft | 442 kts | 101° |
| 2026-05-09 11:56 | 56.92303 | 68.41181 | 34388 ft | 441 kts | 101° |
| 2026-05-09 11:57 | 56.91230 | 68.52192 | 34445 ft | 448 kts | 101° |
| 2026-05-09 11:57 | 56.90115 | 68.63538 | 34452 ft | 461 kts | 101° |
| 2026-05-09 11:58 | 56.88958 | 68.75187 | 34441 ft | 473 kts | 101° |
| 2026-05-09 11:58 | 56.87773 | 68.87006 | 34441 ft | 475 kts | 101° |
| 2026-05-09 11:59 | 56.86576 | 68.98824 | 34437 ft | 474 kts | 101° |
| 2026-05-09 11:59 | 56.85369 | 69.10617 | 34449 ft | 474 kts | 101° |
| 2026-05-09 12:00 | 56.84152 | 69.22398 | 34441 ft | 474 kts | 101° |
| 2026-05-09 12:00 | 56.82926 | 69.34152 | 34440 ft | 473 kts | 101° |
| 2026-05-09 12:01 | 56.81685 | 69.45935 | 34436 ft | 473 kts | 101° |
| 2026-05-09 12:01 | 56.80444 | 69.57603 | 34443 ft | 472 kts | 101° |
| 2026-05-09 12:02 | 56.79184 | 69.69343 | 34428 ft | 471 kts | 102° |
| 2026-05-09 12:02 | 56.77918 | 69.81018 | 34440 ft | 473 kts | 102° |
| 2026-05-09 12:03 | 56.76635 | 69.92752 | 34461 ft | 474 kts | 102° |
| 2026-05-09 12:03 | 56.75343 | 70.04462 | 34464 ft | 474 kts | 103° |
| 2026-05-09 12:04 | 56.74038 | 70.16174 | 34463 ft | 473 kts | 102° |
| 2026-05-09 12:04 | 56.72680 | 70.27868 | 34492 ft | 476 kts | 103° |
| 2026-05-09 12:05 | 56.71254 | 70.39600 | 34733 ft | 476 kts | 103° |
| 2026-05-09 12:05 | 56.70536 | 70.45477 | 34885 ft | 474 kts | 103° |
| 2026-05-09 12:05 | 56.69831 | 70.51223 | 35003 ft | 474 kts | 104° |
| 2026-05-09 12:06 | 56.68391 | 70.62884 | 35181 ft | 474 kts | 104° |
| 2026-05-09 12:06 | 56.67662 | 70.68748 | 35500 ft | 475 kts | 104° |
| 2026-05-09 12:06 | 56.66935 | 70.74581 | 35640 ft | 474 kts | 104° |
| 2026-05-09 12:06 | 56.66213 | 70.80338 | 35769 ft | 474 kts | 105° |
| 2026-05-09 12:07 | 56.65484 | 70.86137 | 35897 ft | 473 kts | 104° |
| 2026-05-09 12:07 | 56.64749 | 70.91956 | 36027 ft | 473 kts | 105° |
| 2026-05-09 12:07 | 56.64011 | 70.97778 | 36143 ft | 473 kts | 105° |
| 2026-05-09 12:07 | 56.63277 | 71.03538 | 36251 ft | 473 kts | 105° |
| 2026-05-09 12:08 | 56.62528 | 71.09400 | 36341 ft | 474 kts | 105° |
| 2026-05-09 12:08 | 56.61787 | 71.15173 | 36442 ft | 473 kts | 105° |
| 2026-05-09 12:08 | 56.61045 | 71.20933 | 36465 ft | 474 kts | 105° |
| 2026-05-09 12:09 | 56.59534 | 71.32584 | 36467 ft | 473 kts | 105° |
| 2026-05-09 12:09 | 56.58017 | 71.44192 | 36474 ft | 474 kts | 105° |
| 2026-05-09 12:10 | 56.54967 | 71.67263 | 36482 ft | 473 kts | 105° |
| 2026-05-09 12:11 | 56.53420 | 71.78824 | 36486 ft | 473 kts | 105° |
| 2026-05-09 12:11 | 56.51862 | 71.90380 | 36485 ft | 473 kts | 105° |
| 2026-05-09 12:12 | 56.50294 | 72.01924 | 36478 ft | 472 kts | 105° |
| 2026-05-09 12:12 | 56.48734 | 72.13321 | 36573 ft | 466 kts | 105° |
| 2026-05-09 12:13 | 56.47180 | 72.24587 | 36498 ft | 459 kts | 105° |
| 2026-05-09 12:13 | 56.45636 | 72.35700 | 36499 ft | 452 kts | 105° |
| 2026-05-09 12:14 | 56.44116 | 72.46563 | 36488 ft | 446 kts | 105° |
| 2026-05-09 12:14 | 56.42594 | 72.57360 | 36499 ft | 440 kts | 105° |
| 2026-05-09 12:15 | 56.41089 | 72.67972 | 36486 ft | 436 kts | 107° |
| 2026-05-09 12:15 | 56.39591 | 72.78459 | 36483 ft | 432 kts | 107° |
| 2026-05-09 12:16 | 56.38081 | 72.88957 | 36389 ft | 439 kts | 106° |
| 2026-05-09 12:16 | 56.36534 | 72.99644 | 36490 ft | 445 kts | 107° |
| 2026-05-09 12:17 | 56.34955 | 73.10477 | 36505 ft | 453 kts | 107° |
| 2026-05-09 12:17 | 56.33340 | 73.21483 | 36499 ft | 461 kts | 106° |
| 2026-05-09 12:18 | 56.31690 | 73.32646 | 36503 ft | 468 kts | 106° |
| 2026-05-09 12:18 | 56.29996 | 73.44031 | 36507 ft | 474 kts | 106° |
| 2026-05-09 12:19 | 56.28298 | 73.55364 | 36497 ft | 474 kts | 106° |
| 2026-05-09 12:19 | 56.26578 | 73.66762 | 36512 ft | 472 kts | 107° |
| 2026-05-09 12:20 | 56.24847 | 73.78149 | 36519 ft | 473 kts | 107° |
| 2026-05-09 12:20 | 56.23121 | 73.89430 | 36514 ft | 473 kts | 107° |
| 2026-05-09 12:21 | 56.21202 | 74.00648 | 36502 ft | 472 kts | 109° |
| 2026-05-09 12:21 | 56.19218 | 74.11861 | 36505 ft | 473 kts | 109° |
| 2026-05-09 12:22 | 56.17211 | 74.23058 | 36501 ft | 473 kts | 109° |
| 2026-05-09 12:22 | 56.15192 | 74.34257 | 36509 ft | 473 kts | 109° |
| 2026-05-09 12:23 | 56.13177 | 74.45367 | 36505 ft | 472 kts | 109° |
| 2026-05-09 12:23 | 56.11145 | 74.56502 | 36513 ft | 472 kts | 109° |
| 2026-05-09 12:24 | 56.09101 | 74.67635 | 36508 ft | 472 kts | 110° |
| 2026-05-09 12:24 | 56.07046 | 74.78764 | 36512 ft | 472 kts | 110° |
| 2026-05-09 12:25 | 56.04988 | 74.89844 | 36515 ft | 473 kts | 110° |
| 2026-05-09 12:25 | 56.02909 | 75.00969 | 36517 ft | 472 kts | 110° |
| 2026-05-09 12:26 | 56.00831 | 75.12022 | 36490 ft | 464 kts | 110° |
| 2026-05-09 12:26 | 55.99836 | 75.17298 | 36331 ft | 448 kts | 110° |
| 2026-05-09 12:26 | 55.98839 | 75.22562 | 35707 ft | 446 kts | 110° |
| 2026-05-09 12:26 | 55.97846 | 75.27789 | 34827 ft | 450 kts | 110° |
| 2026-05-09 12:27 | 55.96840 | 75.33075 | 33898 ft | 455 kts | 110° |
| 2026-05-09 12:27 | 55.95839 | 75.38314 | 32997 ft | 455 kts | 109° |
| 2026-05-09 12:27 | 55.94819 | 75.43648 | 32074 ft | 453 kts | 109° |
| 2026-05-09 12:27 | 55.93811 | 75.48894 | 31229 ft | 448 kts | 109° |
| 2026-05-09 12:28 | 55.92821 | 75.54041 | 30509 ft | 439 kts | 108° |
| 2026-05-09 12:28 | 55.91838 | 75.59137 | 29751 ft | 431 kts | 108° |
| 2026-05-09 12:28 | 55.90879 | 75.64092 | 28917 ft | 425 kts | 109° |
| 2026-05-09 12:28 | 55.89925 | 75.69013 | 28027 ft | 421 kts | 110° |
| 2026-05-09 12:29 | 55.88977 | 75.73890 | 27698 ft | 407 kts | 110° |
| 2026-05-09 12:29 | 55.88044 | 75.78675 | 27817 ft | 416 kts | 110° |
| 2026-05-09 12:29 | 55.87084 | 75.83584 | 27838 ft | 426 kts | 110° |
| 2026-05-09 12:29 | 55.86108 | 75.88567 | 27831 ft | 434 kts | 110° |
| 2026-05-09 12:30 | 55.85105 | 75.93672 | 27821 ft | 435 kts | 110° |
| 2026-05-09 12:30 | 55.84114 | 75.98703 | 27819 ft | 434 kts | 110° |
| 2026-05-09 12:30 | 55.82122 | 76.08779 | 27818 ft | 435 kts | 110° |
| 2026-05-09 12:31 | 55.81122 | 76.13816 | 27821 ft | 435 kts | 110° |
| 2026-05-09 12:31 | 55.79113 | 76.23902 | 27821 ft | 435 kts | 110° |
| 2026-05-09 12:31 | 55.78092 | 76.29008 | 27822 ft | 436 kts | 110° |
| 2026-05-09 12:32 | 55.77080 | 76.34055 | 27826 ft | 437 kts | 110° |
| 2026-05-09 12:32 | 55.76065 | 76.39103 | 27825 ft | 441 kts | 111° |
| 2026-05-09 12:32 | 55.75032 | 76.44222 | 27825 ft | 444 kts | 110° |
| 2026-05-09 12:32 | 55.73988 | 76.49393 | 27823 ft | 445 kts | 110° |
| 2026-05-09 12:33 | 55.72944 | 76.54542 | 27820 ft | 445 kts | 110° |
| 2026-05-09 12:33 | 55.71897 | 76.59698 | 27819 ft | 446 kts | 110° |
| 2026-05-09 12:33 | 55.70847 | 76.64852 | 27826 ft | 448 kts | 110° |
| 2026-05-09 12:33 | 55.69791 | 76.70024 | 27824 ft | 446 kts | 111° |
| 2026-05-09 12:34 | 55.68739 | 76.75166 | 27825 ft | 447 kts | 111° |
| 2026-05-09 12:34 | 55.67680 | 76.80323 | 27830 ft | 447 kts | 111° |
| 2026-05-09 12:34 | 55.66618 | 76.85484 | 27826 ft | 447 kts | 111° |
| 2026-05-09 12:34 | 55.65554 | 76.90640 | 27822 ft | 448 kts | 111° |
| 2026-05-09 12:35 | 55.64497 | 76.95753 | 27825 ft | 447 kts | 111° |
| 2026-05-09 12:35 | 55.63425 | 77.00921 | 27826 ft | 447 kts | 111° |
| 2026-05-09 12:35 | 55.62355 | 77.06067 | 27830 ft | 447 kts | 111° |
| 2026-05-09 12:35 | 55.61283 | 77.11208 | 27835 ft | 448 kts | 111° |
| 2026-05-09 12:36 | 55.60206 | 77.16363 | 27836 ft | 447 kts | 111° |
| 2026-05-09 12:36 | 55.59125 | 77.21521 | 27834 ft | 448 kts | 111° |
| 2026-05-09 12:36 | 55.58045 | 77.26662 | 27832 ft | 449 kts | 111° |
| 2026-05-09 12:36 | 55.56972 | 77.31762 | 27836 ft | 450 kts | 112° |
| 2026-05-09 12:37 | 55.55881 | 77.36930 | 27838 ft | 450 kts | 112° |
| 2026-05-09 12:37 | 55.54782 | 77.42121 | 27833 ft | 450 kts | 112° |
| 2026-05-09 12:37 | 55.53686 | 77.47283 | 27835 ft | 449 kts | 112° |
| 2026-05-09 12:37 | 55.52599 | 77.52395 | 27834 ft | 450 kts | 112° |
| 2026-05-09 12:38 | 55.51500 | 77.57547 | 27834 ft | 450 kts | 112° |
| 2026-05-09 12:38 | 55.50395 | 77.62715 | 27835 ft | 449 kts | 112° |
| 2026-05-09 12:38 | 55.49301 | 77.67823 | 27837 ft | 449 kts | 113° |
| 2026-05-09 12:38 | 55.48202 | 77.72937 | 27841 ft | 449 kts | 113° |
| 2026-05-09 12:39 | 55.47089 | 77.78098 | 27843 ft | 448 kts | 113° |
| 2026-05-09 12:39 | 55.45996 | 77.83164 | 27840 ft | 448 kts | 113° |
| 2026-05-09 12:39 | 55.44886 | 77.88291 | 27844 ft | 449 kts | 114° |
| 2026-05-09 12:39 | 55.43773 | 77.93417 | 27844 ft | 448 kts | 114° |
| 2026-05-09 12:40 | 55.42667 | 77.98502 | 27845 ft | 448 kts | 114° |
| 2026-05-09 12:40 | 55.41544 | 78.03649 | 27845 ft | 447 kts | 114° |
| 2026-05-09 12:40 | 55.40438 | 78.08709 | 27847 ft | 448 kts | 114° |
| 2026-05-09 12:40 | 55.39323 | 78.13792 | 27848 ft | 449 kts | 114° |
| 2026-05-09 12:41 | 55.38192 | 78.18940 | 27851 ft | 449 kts | 114° |
| 2026-05-09 12:41 | 55.37083 | 78.23975 | 27847 ft | 448 kts | 114° |
| 2026-05-09 12:41 | 55.35979 | 78.29061 | 27846 ft | 449 kts | 111° |
| 2026-05-09 12:41 | 55.35218 | 78.34453 | 27854 ft | 455 kts | 101° |
| 2026-05-09 12:42 | 55.34868 | 78.39877 | 27856 ft | 455 kts | 99° |
| 2026-05-09 12:42 | 55.34475 | 78.45394 | 27850 ft | 449 kts | 100° |
| 2026-05-09 12:42 | 55.34060 | 78.50749 | 27842 ft | 441 kts | 100° |
| 2026-05-09 12:42 | 55.33637 | 78.56041 | 27851 ft | 440 kts | 101° |
| 2026-05-09 12:43 | 55.33208 | 78.61339 | 27856 ft | 440 kts | 101° |
| 2026-05-09 12:43 | 55.32777 | 78.66637 | 27854 ft | 440 kts | 101° |
| 2026-05-09 12:43 | 55.32348 | 78.71879 | 27849 ft | 440 kts | 101° |
| 2026-05-09 12:43 | 55.31908 | 78.77216 | 27848 ft | 441 kts | 102° |
| 2026-05-09 12:44 | 55.31472 | 78.82488 | 27831 ft | 429 kts | 102° |
| 2026-05-09 12:44 | 55.31056 | 78.87492 | 27722 ft | 408 kts | 102° |
| 2026-05-09 12:44 | 55.30656 | 78.92271 | 27526 ft | 390 kts | 102° |
| 2026-05-09 12:44 | 55.30266 | 78.96915 | 27246 ft | 376 kts | 102° |
| 2026-05-09 12:45 | 55.29891 | 79.01351 | 26916 ft | 365 kts | 102° |
| 2026-05-09 12:45 | 55.29527 | 79.05643 | 26544 ft | 355 kts | 102° |
| 2026-05-09 12:45 | 55.29165 | 79.09879 | 26142 ft | 348 kts | 103° |
| 2026-05-09 12:45 | 55.28812 | 79.14008 | 25718 ft | 341 kts | 103° |
| 2026-05-09 12:46 | 55.28463 | 79.18065 | 25277 ft | 336 kts | 103° |
| 2026-05-09 12:46 | 55.28119 | 79.22058 | 24820 ft | 331 kts | 103° |
| 2026-05-09 12:46 | 55.27775 | 79.26022 | 24348 ft | 327 kts | 103° |
| 2026-05-09 12:46 | 55.27438 | 79.29897 | 23875 ft | 324 kts | 103° |
| 2026-05-09 12:47 | 55.27099 | 79.33780 | 23395 ft | 321 kts | 103° |
| 2026-05-09 12:47 | 55.26762 | 79.37618 | 22913 ft | 318 kts | 103° |
| 2026-05-09 12:47 | 55.26427 | 79.41428 | 22431 ft | 316 kts | 103° |
| 2026-05-09 12:47 | 55.26094 | 79.45209 | 21953 ft | 314 kts | 103° |
| 2026-05-09 12:48 | 55.25764 | 79.48931 | 21486 ft | 312 kts | 103° |
| 2026-05-09 12:48 | 55.25433 | 79.52657 | 21009 ft | 310 kts | 103° |
| 2026-05-09 12:48 | 55.25098 | 79.56401 | 20530 ft | 308 kts | 103° |
| 2026-05-09 12:48 | 55.24768 | 79.60090 | 20067 ft | 306 kts | 103° |
| 2026-05-09 12:49 | 55.24441 | 79.63727 | 19610 ft | 305 kts | 103° |
| 2026-05-09 12:49 | 55.24117 | 79.67333 | 19270 ft | 299 kts | 104° |
| 2026-05-09 12:49 | 55.23785 | 79.70977 | 19442 ft | 314 kts | 104° |
| 2026-05-09 12:49 | 55.23426 | 79.74905 | 19438 ft | 337 kts | 103° |
| 2026-05-09 12:50 | 55.23048 | 79.79048 | 19439 ft | 359 kts | 103° |
| 2026-05-09 12:50 | 55.22644 | 79.83458 | 19429 ft | 379 kts | 103° |
| 2026-05-09 12:50 | 55.22213 | 79.88164 | 19429 ft | 395 kts | 103° |
| 2026-05-09 12:50 | 55.21775 | 79.92914 | 19410 ft | 398 kts | 103° |
| 2026-05-09 12:51 | 55.21338 | 79.97633 | 19406 ft | 398 kts | 103° |
| 2026-05-09 12:51 | 55.20893 | 80.02417 | 19400 ft | 398 kts | 103° |
| 2026-05-09 12:51 | 55.20450 | 80.07153 | 19403 ft | 397 kts | 103° |
| 2026-05-09 12:51 | 55.20005 | 80.11887 | 19410 ft | 396 kts | 103° |
| 2026-05-09 12:52 | 55.19558 | 80.16623 | 19402 ft | 397 kts | 103° |
| 2026-05-09 12:52 | 55.19109 | 80.21363 | 19401 ft | 396 kts | 103° |
| 2026-05-09 12:52 | 55.18659 | 80.26090 | 19419 ft | 397 kts | 103° |
| 2026-05-09 12:52 | 55.18203 | 80.30861 | 19406 ft | 395 kts | 103° |
| 2026-05-09 12:53 | 55.17750 | 80.35584 | 19393 ft | 397 kts | 103° |
| 2026-05-09 12:53 | 55.17297 | 80.40276 | 19384 ft | 396 kts | 103° |
| 2026-05-09 12:53 | 55.16836 | 80.45042 | 19394 ft | 397 kts | 103° |
| 2026-05-09 12:53 | 55.16378 | 80.49750 | 19375 ft | 397 kts | 103° |
| 2026-05-09 12:54 | 55.15906 | 80.54576 | 19112 ft | 400 kts | 103° |
| 2026-05-09 12:54 | 55.15444 | 80.59296 | 18693 ft | 397 kts | 103° |
| 2026-05-09 12:54 | 55.14981 | 80.63997 | 18245 ft | 395 kts | 103° |
| 2026-05-09 12:54 | 55.14515 | 80.68713 | 17834 ft | 391 kts | 104° |
| 2026-05-09 12:55 | 55.14055 | 80.73348 | 17399 ft | 388 kts | 104° |
| 2026-05-09 12:55 | 55.13595 | 80.77960 | 16984 ft | 386 kts | 104° |
| 2026-05-09 12:55 | 55.13136 | 80.82549 | 16539 ft | 384 kts | 104° |
| 2026-05-09 12:55 | 55.12676 | 80.87135 | 16328 ft | 378 kts | 104° |
| 2026-05-09 12:56 | 55.12219 | 80.91651 | 16312 ft | 380 kts | 104° |
| 2026-05-09 12:56 | 55.11776 | 80.96212 | 16322 ft | 383 kts | 99° |
| 2026-05-09 12:56 | 55.11727 | 81.00868 | 16340 ft | 386 kts | 92° |
| 2026-05-09 12:56 | 55.11754 | 81.05484 | 16349 ft | 385 kts | 92° |
| 2026-05-09 12:57 | 55.11774 | 81.10178 | 16330 ft | 384 kts | 92° |
| 2026-05-09 12:57 | 55.11788 | 81.14789 | 16342 ft | 385 kts | 92° |
| 2026-05-09 12:57 | 55.11794 | 81.19486 | 16352 ft | 384 kts | 92° |
| 2026-05-09 12:57 | 55.11792 | 81.24121 | 16323 ft | 387 kts | 93° |
| 2026-05-09 12:58 | 55.11782 | 81.28793 | 16339 ft | 385 kts | 93° |
| 2026-05-09 12:58 | 55.11764 | 81.33467 | 16329 ft | 385 kts | 93° |
| 2026-05-09 12:58 | 55.11739 | 81.38121 | 16358 ft | 384 kts | 93° |
| 2026-05-09 12:58 | 55.11706 | 81.42802 | 16327 ft | 386 kts | 93° |
| 2026-05-09 12:59 | 55.11666 | 81.47427 | 16340 ft | 385 kts | 94° |
| 2026-05-09 12:59 | 55.11491 | 81.52071 | 16310 ft | 381 kts | 107° |
| 2026-05-09 12:59 | 55.10392 | 81.56147 | 16355 ft | 368 kts | 133° |
| 2026-05-09 12:59 | 55.08707 | 81.59506 | 16403 ft | 366 kts | 136° |
| 2026-05-09 13:00 | 55.07030 | 81.62749 | 16406 ft | 366 kts | 136° |
| 2026-05-09 13:00 | 55.05331 | 81.66028 | 16403 ft | 365 kts | 137° |
| 2026-05-09 13:00 | 55.03757 | 81.69540 | 16399 ft | 372 kts | 123° |
| 2026-05-09 13:00 | 55.02749 | 81.73724 | 16408 ft | 379 kts | 112° |
| 2026-05-09 13:01 | 55.02036 | 81.78130 | 16411 ft | 372 kts | 108° |
| 2026-05-09 13:01 | 55.01461 | 81.82333 | 16349 ft | 350 kts | 107° |
| 2026-05-09 13:01 | 55.00938 | 81.86384 | 16047 ft | 337 kts | 106° |
| 2026-05-09 13:01 | 55.00439 | 81.90331 | 15719 ft | 327 kts | 106° |
| 2026-05-09 13:02 | 54.99965 | 81.94102 | 15366 ft | 318 kts | 106° |
| 2026-05-09 13:02 | 54.99500 | 81.97810 | 15029 ft | 311 kts | 106° |
| 2026-05-09 13:02 | 54.99045 | 82.01432 | 14679 ft | 303 kts | 106° |
| 2026-05-09 13:02 | 54.98602 | 82.04957 | 14367 ft | 296 kts | 106° |
| 2026-05-09 13:03 | 54.98166 | 82.08415 | 14043 ft | 289 kts | 106° |
| 2026-05-09 13:03 | 54.97741 | 82.11773 | 13736 ft | 283 kts | 106° |
| 2026-05-09 13:03 | 54.97323 | 82.15074 | 13422 ft | 278 kts | 106° |
| 2026-05-09 13:03 | 54.96913 | 82.18302 | 13164 ft | 276 kts | 106° |
| 2026-05-09 13:04 | 54.96497 | 82.21566 | 12847 ft | 276 kts | 106° |
| 2026-05-09 13:04 | 54.96086 | 82.24794 | 12548 ft | 276 kts | 106° |
| 2026-05-09 13:04 | 54.95674 | 82.28016 | 12212 ft | 270 kts | 107° |
| 2026-05-09 13:04 | 54.95276 | 82.31137 | 12072 ft | 258 kts | 107° |
| 2026-05-09 13:05 | 54.94891 | 82.34132 | 11937 ft | 249 kts | 107° |
| 2026-05-09 13:05 | 54.94518 | 82.37033 | 11755 ft | 245 kts | 107° |
| 2026-05-09 13:05 | 54.94145 | 82.39914 | 11486 ft | 246 kts | 107° |
| 2026-05-09 13:05 | 54.93768 | 82.42828 | 11222 ft | 247 kts | 108° |
| 2026-05-09 13:06 | 54.93391 | 82.45746 | 10935 ft | 246 kts | 108° |
| 2026-05-09 13:06 | 54.93019 | 82.48609 | 10640 ft | 243 kts | 108° |
| 2026-05-09 13:06 | 54.92652 | 82.51433 | 10364 ft | 241 kts | 108° |
| 2026-05-09 13:06 | 54.92284 | 82.54263 | 10127 ft | 240 kts | 108° |
| 2026-05-09 13:07 | 54.91915 | 82.57085 | 9847 ft | 239 kts | 108° |
| 2026-05-09 13:07 | 54.91548 | 82.59895 | 9610 ft | 239 kts | 108° |
| 2026-05-09 13:07 | 54.91183 | 82.62685 | 9288 ft | 236 kts | 108° |
| 2026-05-09 13:07 | 54.90819 | 82.65451 | 9073 ft | 235 kts | 109° |
| 2026-05-09 13:08 | 54.90459 | 82.68195 | 8838 ft | 235 kts | 109° |
| 2026-05-09 13:08 | 54.90095 | 82.70953 | 8528 ft | 233 kts | 109° |
| 2026-05-09 13:08 | 54.89734 | 82.73687 | 8326 ft | 233 kts | 109° |
| 2026-05-09 13:08 | 54.89372 | 82.76429 | 8069 ft | 232 kts | 109° |
| 2026-05-09 13:09 | 54.88714 | 82.78838 | 8022 ft | 214 kts | 146° |
| 2026-05-09 13:09 | 54.87437 | 82.79746 | 8075 ft | 199 kts | 185° |
| 2026-05-09 13:09 | 54.86050 | 82.79627 | 8052 ft | 199 kts | 189° |
| 2026-05-09 13:09 | 54.84691 | 82.79438 | 8017 ft | 191 kts | 189° |
| 2026-05-09 13:10 | 54.83409 | 82.79274 | 8033 ft | 184 kts | 189° |
| 2026-05-09 13:10 | 54.82185 | 82.78814 | 7995 ft | 177 kts | 218° |
| 2026-05-09 13:10 | 54.81583 | 82.77046 | 8064 ft | 181 kts | 263° |
| 2026-05-09 13:10 | 54.81905 | 82.74886 | 8059 ft | 191 kts | 288° |
| 2026-05-09 13:11 | 54.82489 | 82.72817 | 8042 ft | 192 kts | 290° |
| 2026-05-09 13:11 | 54.83088 | 82.70738 | 8008 ft | 192 kts | 290° |
| 2026-05-09 13:11 | 54.83685 | 82.68668 | 8020 ft | 191 kts | 290° |
| 2026-05-09 13:11 | 54.84282 | 82.66596 | 8016 ft | 192 kts | 290° |
| 2026-05-09 13:12 | 54.84876 | 82.64529 | 8007 ft | 192 kts | 290° |
| 2026-05-09 13:12 | 54.85669 | 82.62641 | 8006 ft | 205 kts | 321° |
| 2026-05-09 13:12 | 54.87086 | 82.62093 | 8027 ft | 223 kts | 6° |
| 2026-05-09 13:12 | 54.88460 | 82.63376 | 8046 ft | 230 kts | 51° |
| 2026-05-09 13:13 | 54.89037 | 82.65888 | 8035 ft | 224 kts | 96° |
| 2026-05-09 13:13 | 54.88804 | 82.68496 | 8055 ft | 220 kts | 108° |
| 2026-05-09 13:13 | 54.88761 | 82.71130 | 7976 ft | 226 kts | 81° |
| 2026-05-09 13:13 | 54.88985 | 82.73811 | 8054 ft | 224 kts | 92° |
| 2026-05-09 13:14 | 54.88955 | 82.76531 | 7960 ft | 224 kts | 99° |
| 2026-05-09 13:14 | 54.88784 | 82.79197 | 7746 ft | 222 kts | 104° |
| 2026-05-09 13:16 | 54.85976 | 82.96390 | 6156 ft | 199 kts | 81° |
| 2026-05-09 13:16 | 54.86558 | 82.98653 | 6394 ft | 219 kts | 60° |
| 2026-05-09 13:16 | 54.87367 | 83.00943 | 6376 ft | 225 kts | 59° |
| 2026-05-09 13:16 | 54.88496 | 83.02739 | 6347 ft | 223 kts | 17° |
| 2026-05-09 13:17 | 54.89965 | 83.02857 | 6384 ft | 209 kts | 333° |
| 2026-05-09 13:17 | 54.91008 | 83.01347 | 6377 ft | 189 kts | 288° |
| 2026-05-09 13:17 | 54.91150 | 82.99208 | 6403 ft | 178 kts | 259° |
| 2026-05-09 13:17 | 54.90991 | 82.97071 | 6359 ft | 178 kts | 258° |
| 2026-05-09 13:18 | 54.90820 | 82.94948 | 6353 ft | 176 kts | 258° |
| 2026-05-09 13:18 | 54.90652 | 82.92830 | 6355 ft | 177 kts | 258° |
| 2026-05-09 13:18 | 54.90487 | 82.90735 | 6365 ft | 177 kts | 258° |
| 2026-05-09 13:18 | 54.90317 | 82.88594 | 6354 ft | 178 kts | 258° |
| 2026-05-09 13:19 | 54.90151 | 82.86492 | 6360 ft | 178 kts | 258° |
| 2026-05-09 13:19 | 54.89984 | 82.84383 | 6336 ft | 176 kts | 258° |
| 2026-05-09 13:19 | 54.89818 | 82.82265 | 6358 ft | 177 kts | 258° |
| 2026-05-09 13:19 | 54.89646 | 82.80125 | 6358 ft | 178 kts | 258° |
| 2026-05-09 13:20 | 54.89478 | 82.78001 | 6364 ft | 177 kts | 258° |
| 2026-05-09 13:20 | 54.89312 | 82.75912 | 6342 ft | 178 kts | 258° |
| 2026-05-09 13:20 | 54.89144 | 82.73769 | 6349 ft | 177 kts | 258° |
| 2026-05-09 13:20 | 54.88977 | 82.71677 | 6328 ft | 177 kts | 258° |
| 2026-05-09 13:21 | 54.88807 | 82.69550 | 6350 ft | 179 kts | 258° |
| 2026-05-09 13:21 | 54.88637 | 82.67398 | 6337 ft | 179 kts | 258° |
| 2026-05-09 13:21 | 54.88467 | 82.65291 | 6342 ft | 177 kts | 258° |
| 2026-05-09 13:21 | 54.88298 | 82.63152 | 6335 ft | 177 kts | 258° |
| 2026-05-09 13:22 | 54.88131 | 82.61052 | 6353 ft | 176 kts | 258° |
| 2026-05-09 13:22 | 54.87961 | 82.58920 | 6322 ft | 178 kts | 258° |
| 2026-05-09 13:22 | 54.87794 | 82.56815 | 6328 ft | 177 kts | 258° |
| 2026-05-09 13:23 | 54.87138 | 82.48367 | 6353 ft | 178 kts | 258° |
| 2026-05-09 13:23 | 54.86977 | 82.46240 | 6332 ft | 177 kts | 259° |
| 2026-05-09 13:24 | 54.86821 | 82.44145 | 6357 ft | 177 kts | 259° |
| 2026-05-09 13:24 | 54.86665 | 82.42029 | 6338 ft | 177 kts | 259° |
| 2026-05-09 13:24 | 54.86511 | 82.39909 | 6341 ft | 178 kts | 259° |
| 2026-05-09 13:24 | 54.86359 | 82.37788 | 6347 ft | 177 kts | 259° |
| 2026-05-09 13:25 | 54.86209 | 82.35650 | 6346 ft | 179 kts | 259° |
| 2026-05-09 13:25 | 54.86061 | 82.33527 | 6329 ft | 177 kts | 259° |
| 2026-05-09 13:25 | 54.85779 | 82.29345 | 6246 ft | 168 kts | 259° |
| 2026-05-09 13:26 | 54.85771 | 82.27329 | 5901 ft | 175 kts | 283° |
| 2026-05-09 13:26 | 54.86590 | 82.25690 | 5449 ft | 198 kts | 328° |
| 2026-05-09 13:26 | 54.87993 | 82.25452 | 4996 ft | 216 kts | 11° |
| 2026-05-09 13:26 | 54.89435 | 82.26055 | 4651 ft | 214 kts | 6° |
| 2026-05-09 13:27 | 54.90888 | 82.26540 | 4309 ft | 213 kts | 6° |
| 2026-05-09 13:27 | 54.92335 | 82.27011 | 3973 ft | 212 kts | 6° |
| 2026-05-09 13:27 | 54.93793 | 82.27489 | 3637 ft | 211 kts | 6° |
| 2026-05-09 13:27 | 54.95214 | 82.27914 | 3308 ft | 208 kts | 356° |
| 2026-05-09 13:28 | 54.96526 | 82.27210 | 2921 ft | 193 kts | 313° |
| 2026-05-09 13:28 | 54.97207 | 82.25320 | 2565 ft | 183 kts | 290° |
| 2026-05-09 13:28 | 54.98142 | 82.23801 | 2196 ft | 196 kts | 336° |
| 2026-05-09 13:28 | 54.99511 | 82.23853 | 2077 ft | 204 kts | 21° |
| 2026-05-09 13:29 | 55.00814 | 82.24817 | 2054 ft | 203 kts | 26° |
| 2026-05-09 13:29 | 55.01722 | 82.26611 | 1985 ft | 201 kts | 77° |
| 2026-05-09 13:29 | 55.01798 | 82.28947 | 1954 ft | 192 kts | 96° |
| 2026-05-09 13:29 | 55.01702 | 82.31294 | 2040 ft | 196 kts | 99° |
| 2026-05-09 13:30 | 55.01532 | 82.33607 | 1920 ft | 191 kts | 103° |
| 2026-05-09 13:30 | 55.01266 | 82.35838 | 1782 ft | 188 kts | 111° |
| 2026-05-09 13:30 | 55.00836 | 82.37962 | 1637 ft | 185 kts | 114° |
| 2026-05-09 13:30 | 55.00347 | 82.40054 | 1502 ft | 190 kts | 116° |
| 2026-05-09 13:31 | 54.99939 | 82.42225 | 1350 ft | 183 kts | 109° |
| 2026-05-09 13:31 | 54.99591 | 82.44305 | 1270 ft | 171 kts | 103° |
| 2026-05-09 13:31 | 54.99547 | 82.46157 | 1306 ft | 145 kts | 86° |
| 2026-05-09 13:31 | 54.99748 | 82.47841 | 1304 ft | 141 kts | 80° |
| 2026-05-09 13:32 | 54.99952 | 82.49511 | 1467 ft | 142 kts | 83° |